Alma, CO

5:37 PM MDT on April 19, 2015 (GMT -0600)
Sol | | Change Station
CLOSE
Current Station
Personal Weather Station
Location: Fairplay, CO
Elevation: 10906 ft
Nearby Weather Stations

Elev 10906 ft 39.29 °N, 106.02 °W | Updated 12 seconds ago

Overcast
Overcast
41.5 °F
Feels Like 38 °F
N
6.0
Wind Variable Wind from ESE
Gusts 13.0 mph

Today
High -- | Low -- °F
--% Chance of Precip.
Yesterday
High -- | Low -- °F
Precip. -- in
6:21 AM 7:45 PM
New Moon, 2% visible
Pressure 30.11 in
Visibility -9999.0 miles
Clouds Scattered Clouds 200 ft
Mostly Cloudy 700 ft
Overcast 1300 ft
Windchill 38 °F
Dew Point 24 °F
Humidity 49%
Rainfall 0.02 in
Snow Depth Not available.
UV 1 out of 12
Pollen 8.40 out of 12
Air Quality Not available.
Flu Activity Local Activity
METAR KCCU 192315Z AUTO 29018G22KT SCT002 BKN007 OVC013 M03/M06 A3011 RMK AO2 PWINO

More Conditions Fewer Conditions

Pressure 30.11 in
Visibility -9999.0 miles
Clouds Scattered Clouds 200 ft
Mostly Cloudy 700 ft
Overcast 1300 ft
Windchill 38 °F
Dew Point 24 °F
Humidity 49%
Rainfall 0.02 in
Snow Depth Not available.
UV 1 out of 12
Pollen 8.40 out of 12
Air Quality Not available.
Flu Activity Local Activity
METAR KCCU 192315Z AUTO 29018G22KT SCT002 BKN007 OVC013 M03/M06 A3011 RMK AO2 PWINO

More Conditions Fewer Conditions

10-Day Weather Forecast

Almanac

Astronomy

Apr. 19, 2015 Rise Set
Actual Time
Civil Twilight
Nautical Twilight
Astronomical Twilight
Moon
Length of Visible Light
Length of Day
Tomorrow will be .
, % of the Moon is Illuminated

Today's Extremes

State Highs State Lows

Community

WunderPhotos

Upload Photos

1,815,036 photos uploaded!

WunderBlogs® & News

Nearby

Air Quality

  Air Quality AQ Index Pollutant
Not available.

Snow Depth

Station Depth Elevation

Earthquake Activity

City Distance Mag. Time & Date
Minimum magnitude displayed is 2.5.

Coastal Water Temperatures

Place Temperature

Stations

Nearby Weather Stations

Station Location Temp. Windchill Dew Point Humidity Wind Precip. Elev Updated Type